Time;durP1;ratioP1;P1;durP2;ratioP2;P2;SDS_P1;SDS_P2;PMS_P1;PMS_P2;Temp;Humidity;BMP_temperature;BMP_pressure;BME280_temperature;BME280_humidity;BME280_pressure;Samples;Min_cycle;Max_cycle;Signal;HPM_P1;HPM_P2
2022/08/25 00:00:48;;;;;;;14.13;3.12;;;;;;;20.52;50.78;99994.42;1784092;80;21071;-75
2022/08/25 00:03:15;;;;;;;10.40;2.62;;;;;;;20.51;50.65;99994.03;1812782;79;21002;-74
2022/08/25 00:05:42;;;;;;;12.68;3.00;;;;;;;20.49;50.60;99990.61;1784156;80;21186;-74
2022/08/25 00:08:09;;;;;;;10.30;2.60;;;;;;;20.47;50.61;99997.89;1812315;79;21085;-75
2022/08/25 00:10:37;;;;;;;10.03;2.70;;;;;;;20.41;50.64;99993.34;1784268;80;21101;-75
2022/08/25 00:13:04;;;;;;;12.33;2.95;;;;;;;20.38;50.60;99993.54;1812580;78;21053;-75
2022/08/25 00:15:31;;;;;;;9.08;2.85;;;;;;;20.36;50.63;99999.48;1784173;80;21098;-74
2022/08/25 00:17:58;;;;;;;8.58;3.20;;;;;;;20.36;50.72;100001.30;1812499;79;21823;-75
2022/08/25 00:20:26;;;;;;;11.00;3.33;;;;;;;20.32;50.75;100005.12;1784058;80;21589;-75
2022/08/25 00:22:52;;;;;;;13.75;3.10;;;;;;;20.31;50.80;100004.73;1812568;79;21451;-74
2022/08/25 00:25:19;;;;;;;11.73;2.70;;;;;;;20.28;50.76;99999.13;1783887;80;21105;-75
2022/08/25 00:27:47;;;;;;;11.85;3.12;;;;;;;20.28;50.81;100000.95;1812545;79;22039;-75
2022/08/25 00:30:15;;;;;;;9.85;3.20;;;;;;;20.26;51.07;99996.17;1784231;80;21203;-75
2022/08/25 00:32:43;;;;;;;10.38;2.80;;;;;;;20.24;51.60;100000.31;1812446;79;21097;-74
2022/08/25 00:35:10;;;;;;;8.20;2.87;;;;;;;20.20;51.52;99998.30;1784268;80;21000;-74
2022/08/25 00:37:37;;;;;;;6.75;3.30;;;;;;;20.18;51.75;100000.23;1812326;79;21181;-75
2022/08/25 00:40:04;;;;;;;10.75;3.10;;;;;;;20.14;51.78;99997.86;1784342;80;21074;-74
2022/08/25 00:42:31;;;;;;;10.00;2.50;;;;;;;20.11;52.07;100003.42;1812574;79;21555;-74
2022/08/25 00:44:57;;;;;;;10.25;2.72;;;;;;;20.08;52.03;100004.96;1783942;80;21488;-75
2022/08/25 00:47:24;;;;;;;14.15;2.85;;;;;;;20.06;51.79;100004.22;1812618;79;20995;-75
2022/08/25 00:49:57;;;;;;;10.85;3.33;;;;;;;20.06;51.54;100004.22;1783965;80;21082;-74
2022/08/25 00:52:32;;;;;;;7.83;2.50;;;;;;;20.02;51.28;99996.40;1812406;79;21026;-74
2022/08/25 00:55:10;;;;;;;8.35;2.65;;;;;;;20.02;51.04;99998.19;1783919;80;21091;-74
2022/08/25 00:57:42;;;;;;;14.55;3.05;;;;;;;20.00;51.07;99999.63;1812089;79;21084;-75
2022/08/25 01:00:18;;;;;;;6.15;2.67;;;;;;;20.00;51.34;99999.63;1784147;80;20992;-75
2022/08/25 01:02:44;;;;;;;13.32;3.27;;;;;;;19.99;51.29;100001.94;1812321;79;21022;-75
2022/08/25 01:05:11;;;;;;;8.35;2.92;;;;;;;19.97;51.27;100001.19;1784033;80;21018;-74
2022/08/25 01:07:38;;;;;;;8.83;3.02;;;;;;;19.96;51.25;100000.80;1812395;79;21521;-74
2022/08/25 01:10:06;;;;;;;10.98;3.12;;;;;;;19.95;51.42;100003.08;1812404;78;20947;-74
2022/08/25 01:12:35;;;;;;;8.60;3.62;;;;;;;19.93;51.43;99997.48;1812551;79;21018;-75
2022/08/25 01:15:02;;;;;;;9.13;3.60;;;;;;;19.91;51.53;99998.91;1784148;80;21149;-74
2022/08/25 01:17:35;;;;;;;8.08;2.60;;;;;;;19.88;51.50;100001.78;1812454;79;21050;-74
2022/08/25 01:20:03;;;;;;;16.32;3.20;;;;;;;19.86;51.76;99991.20;1784279;80;21106;-75
2022/08/25 01:22:31;;;;;;;7.45;2.92;;;;;;;19.85;51.88;99990.84;1812455;79;21440;-75
2022/08/25 01:25:04;;;;;;;8.38;3.45;;;;;;;19.85;51.87;99989.96;1784237;80;21046;-75
2022/08/25 01:27:31;;;;;;;11.57;3.20;;;;;;;19.81;51.98;99987.13;1812593;79;21541;-75
2022/08/25 01:29:58;;;;;;;9.28;3.27;;;;;;;19.77;52.25;99992.27;1784235;80;21098;-74
2022/08/25 01:32:25;;;;;;;11.53;2.72;;;;;;;19.73;52.55;99993.41;1812390;79;21140;-75
2022/08/25 01:34:52;;;;;;;4.83;2.83;;;;;;;19.68;52.77;99989.70;1755321;80;21035;-75
2022/08/25 01:37:19;;;;;;;7.50;2.95;;;;;;;19.63;53.05;99985.14;1784593;79;21180;-74
2022/08/25 01:39:46;;;;;;;11.00;3.30;;;;;;;19.60;53.32;99983.54;1811599;79;21082;-75
2022/08/25 01:42:44;;;;;;;9.50;2.92;;;;;;;19.59;53.38;99988.48;1811513;79;21098;-75
2022/08/25 01:45:10;;;;;;;10.75;3.02;;;;;;;19.55;53.55;99981.65;1810167;79;21222;-74
2022/08/25 01:47:37;;;;;;;9.20;3.37;;;;;;;19.53;53.69;99985.36;1809192;79;21106;-75
2022/08/25 01:50:05;;;;;;;7.72;2.92;;;;;;;19.51;53.82;99982.78;1811180;78;21046;-74
2022/08/25 01:52:49;;;;;;;7.45;2.87;;;;;;;19.48;54.16;99989.19;1812792;79;21085;-75
2022/08/25 01:55:15;;;;;;;6.65;3.10;;;;;;;19.46;54.41;99991.08;1811953;79;21091;-74
2022/08/25 01:57:42;;;;;;;9.98;3.10;;;;;;;19.43;54.42;99993.09;1812673;79;22160;-75
2022/08/25 02:00:12;;;;;;;5.62;3.45;;;;;;;19.41;54.46;99995.00;1812709;79;21985;-74
2022/08/25 02:02:39;;;;;;;14.30;3.45;;;;;;;19.37;54.47;99990.83;1791032;80;21062;-75
2022/08/25 02:05:07;;;;;;;13.22;3.30;;;;;;;19.35;54.63;99992.72;1790279;80;21038;-75
2022/08/25 02:07:35;;;;;;;8.33;3.37;;;;;;;19.30;54.92;99988.55;1812812;79;21094;-75
2022/08/25 02:10:03;;;;;;;16.20;4.08;;;;;;;19.25;55.07;99989.31;1812669;78;21130;-74
2022/08/25 02:12:31;;;;;;;13.60;3.25;;;;;;;19.22;55.47;99992.17;1820910;78;21055;-74
2022/08/25 02:15:00;;;;;;;11.55;3.60;;;;;;;19.17;55.86;99996.94;1821042;78;21562;-74
2022/08/25 02:17:28;;;;;;;6.65;2.95;;;;;;;19.14;56.01;99989.61;1821152;78;21407;-75
2022/08/25 02:19:55;;;;;;;10.50;3.22;;;;;;;19.10;56.42;99999.13;1821166;78;21241;-75
2022/08/25 02:22:23;;;;;;;9.35;3.40;;;;;;;19.06;56.71;99992.28;1820930;78;21127;-75
2022/08/25 02:24:49;;;;;;;12.78;3.00;;;;;;;19.05;56.96;99993.72;1820998;78;21539;-74
2022/08/25 02:27:16;;;;;;;6.12;3.10;;;;;;;19.02;57.40;99991.23;1821029;78;22060;-75
2022/08/25 02:29:42;;;;;;;8.38;2.83;;;;;;;19.01;57.69;99992.17;1821164;78;21032;-74
2022/08/25 02:32:09;;;;;;;8.53;3.05;;;;;;;18.97;58.09;99995.52;1821144;78;21044;-74
2022/08/25 02:34:36;;;;;;;7.33;3.52;;;;;;;18.94;58.16;99999.20;1790183;80;21548;-75
2022/08/25 02:37:02;;;;;;;15.35;3.55;;;;;;;18.91;58.43;99996.76;1812573;78;21048;-74
2022/08/25 02:39:29;;;;;;;10.63;3.10;;;;;;;18.87;58.71;99997.03;1812526;79;21032;-75
2022/08/25 02:41:56;;;;;;;6.58;3.22;;;;;;;18.82;58.74;99994.61;1790447;80;20991;-74
2022/08/25 02:44:22;;;;;;;12.03;3.30;;;;;;;18.79;59.00;99990.80;1790726;80;20999;-75
2022/08/25 02:46:49;;;;;;;6.30;3.15;;;;;;;18.76;59.27;99989.64;1793456;80;21154;-75
2022/08/25 02:49:15;;;;;;;5.15;2.75;;;;;;;18.71;59.54;99987.73;1818757;78;21039;-74
2022/08/25 02:51:42;;;;;;;9.38;3.55;;;;;;;18.67;59.75;99979.07;1818795;78;21138;-74
2022/08/25 02:54:09;;;;;;;10.03;3.30;;;;;;;18.63;60.00;99978.05;1819062;78;21068;-75
2022/08/25 02:56:35;;;;;;;9.88;3.45;;;;;;;18.60;60.04;99988.88;1818794;78;20981;-75
2022/08/25 02:59:02;;;;;;;7.28;3.20;;;;;;;18.55;60.16;99992.66;1818550;78;21115;-75
2022/08/25 03:01:30;;;;;;;7.08;3.80;;;;;;;18.51;60.20;99989.81;1819015;78;21421;-75
2022/08/25 03:03:57;;;;;;;5.78;3.65;;;;;;;18.45;60.44;99990.17;1818516;78;21083;-74
2022/08/25 03:06:26;;;;;;;8.88;3.12;;;;;;;18.42;60.73;100001.01;1818748;78;21150;-74
2022/08/25 03:08:53;;;;;;;7.45;3.47;;;;;;;18.38;60.76;99993.67;1818764;78;21060;-75
2022/08/25 03:11:20;;;;;;;12.75;3.35;;;;;;;18.37;60.59;99992.44;1818673;78;21127;-75
2022/08/25 03:13:52;;;;;;;8.58;3.25;;;;;;;18.36;60.82;100000.06;1818776;78;21015;-74
2022/08/25 03:16:16;;;;;;;6.03;3.20;;;;;;;18.34;61.06;99993.94;1817986;78;21055;-75
2022/08/25 03:18:42;;;;;;;7.70;3.10;;;;;;;18.32;61.37;99993.19;1818666;78;21582;-74
2022/08/25 03:21:10;;;;;;;6.42;3.80;;;;;;;18.30;61.37;99987.94;1818950;78;21059;-74
2022/08/25 03:23:36;;;;;;;9.08;3.70;;;;;;;18.30;61.40;99989.27;1818711;78;21083;-75
2022/08/25 03:28:48;;;;;;;;;;;;;;;18.29;61.78;99994.23;1819868;78;21007;-74
2022/08/25 03:31:14;;;;;;;6.03;3.50;;;;;;;18.29;61.70;99994.69;1816701;79;20192;-74
2022/08/25 03:33:41;;;;;;;6.28;3.55;;;;;;;18.28;61.68;99998.32;1816977;78;21020;-74
2022/08/25 03:36:10;;;;;;;13.72;3.45;;;;;;;18.26;61.47;99992.23;1816822;79;21840;-75
2022/08/25 03:38:37;;;;;;;7.97;3.80;;;;;;;18.27;61.25;99993.93;1816752;79;21030;-75
2022/08/25 03:41:17;;;;;;;9.88;4.58;;;;;;;18.30;61.30;99993.75;1816570;79;21113;-74
2022/08/25 03:43:43;;;;;;;10.50;4.67;;;;;;;18.31;61.28;99985.67;1816625;79;21100;-75
2022/08/25 03:46:26;;;;;;;13.18;5.00;;;;;;;18.35;61.66;99993.00;1812156;78;21607;-75
2022/08/25 03:48:52;;;;;;;9.83;4.62;;;;;;;18.37;61.74;99992.44;1784201;80;21241;-75
2022/08/25 03:51:25;;;;;;;15.90;5.08;;;;;;;18.38;61.90;99996.83;1784432;80;21165;-75
2022/08/25 03:53:52;;;;;;;11.63;4.10;;;;;;;18.40;61.75;99989.59;1784423;80;21030;-74
2022/08/25 03:56:18;;;;;;;13.50;4.12;;;;;;;18.42;61.54;99979.69;1784327;80;21074;-75
2022/08/25 03:58:46;;;;;;;10.78;4.62;;;;;;;18.46;61.94;99993.23;1784607;80;21043;-76
2022/08/25 04:01:13;;;;;;;10.20;4.05;;;;;;;18.50;62.17;99989.91;1784298;80;21268;-75
2022/08/25 04:03:40;;;;;;;11.80;4.10;;;;;;;18.53;62.03;99981.73;1784545;80;21120;-74
2022/08/25 04:06:07;;;;;;;11.48;3.87;;;;;;;18.55;61.61;99980.67;1784385;80;21073;-75
2022/08/25 04:08:36;;;;;;;14.63;4.40;;;;;;;18.60;61.59;99974.23;1784452;80;21058;-74
2022/08/25 04:11:09;;;;;;;9.50;4.05;;;;;;;18.65;61.99;99982.80;1784590;80;20986;-75
2022/08/25 04:13:36;;;;;;;12.13;4.42;;;;;;;18.68;61.96;99984.80;1784196;80;21204;-74
2022/08/25 04:16:12;;;;;;;8.23;3.80;;;;;;;18.73;62.01;99973.86;1784169;80;21061;-74
2022/08/25 04:18:41;;;;;;;11.33;4.10;;;;;;;18.75;62.14;99974.62;1784296;80;21047;-76
2022/08/25 04:21:08;;;;;;;8.65;4.10;;;;;;;18.79;62.04;99977.46;1784429;80;21046;-75
2022/08/25 04:23:39;;;;;;;9.15;3.90;;;;;;;18.84;62.08;99976.73;1784552;80;21141;-75
2022/08/25 04:26:10;;;;;;;13.40;3.87;;;;;;;18.88;62.01;99967.61;1784491;80;21162;-75
2022/08/25 04:28:37;;;;;;;13.32;3.77;;;;;;;18.92;61.84;99970.45;1784368;80;21482;-75
2022/08/25 04:31:09;;;;;;;10.15;3.62;;;;;;;18.98;61.72;99969.69;1784530;80;20971;-75
2022/08/25 04:33:36;;;;;;;13.38;4.60;;;;;;;19.03;61.60;99966.26;1784135;80;21545;-75
2022/08/25 04:36:05;;;;;;;4.65;3.85;;;;;;;19.08;61.59;99964.16;1784273;80;21494;-75
2022/08/25 04:38:32;;;;;;;7.35;3.72;;;;;;;19.13;61.59;99960.72;1784347;80;21037;-75
2022/08/25 04:41:03;;;;;;;8.88;3.67;;;;;;;19.19;61.47;99957.68;1784200;80;21011;-76
2022/08/25 04:43:30;;;;;;;11.50;4.35;;;;;;;19.25;61.39;99953.78;1784202;80;21067;-75
2022/08/25 04:45:57;;;;;;;11.53;3.90;;;;;;;19.30;60.92;99959.20;1773228;80;21071;-75
2022/08/25 04:48:24;;;;;;;11.38;4.10;;;;;;;19.38;60.64;99960.51;1747684;82;21079;-75
2022/08/25 04:50:51;;;;;;;8.68;3.92;;;;;;;19.44;60.55;99956.13;1747820;82;21642;-75
2022/08/25 04:53:18;;;;;;;13.98;4.30;;;;;;;19.51;60.29;99961.44;1747771;81;21045;-75
2022/08/25 04:55:46;;;;;;;14.23;4.42;;;;;;;19.59;59.96;99960.46;1748154;81;23080;-75
2022/08/25 04:58:14;;;;;;;15.60;4.40;;;;;;;19.66;59.58;99960.43;1747684;82;21048;-75
2022/08/25 05:00:41;;;;;;;9.88;4.37;;;;;;;19.74;59.06;99948.41;1748265;80;21036;-74
2022/08/25 05:03:07;;;;;;;9.35;3.70;;;;;;;19.84;58.81;99952.22;1748069;82;21153;-75
2022/08/25 05:05:37;;;;;;;12.68;4.30;;;;;;;19.91;58.84;99954.85;1747940;82;21009;-75
2022/08/25 05:08:05;;;;;;;8.20;4.33;;;;;;;19.99;58.62;99947.19;1748020;82;21142;-75
2022/08/25 05:10:33;;;;;;;12.05;4.12;;;;;;;20.09;58.57;99943.88;1747901;81;21126;-74
2022/08/25 05:13:00;;;;;;;7.17;4.00;;;;;;;20.17;58.20;99948.23;1748214;81;21469;-75
2022/08/25 05:18:12;;;;;;;17.27;4.20;;;;;;;20.32;56.58;99947.18;1748356;81;21489;-74
2022/08/25 05:20:38;;;;;;;15.40;4.62;;;;;;;20.40;56.29;99938.66;1748136;82;21096;-74
2022/08/25 05:23:05;;;;;;;9.83;4.37;;;;;;;20.49;55.65;99942.50;1748071;82;21052;-75
2022/08/25 05:25:32;;;;;;;9.55;5.03;;;;;;;20.55;55.45;99935.41;1747985;82;21020;-74
2022/08/25 05:27:58;;;;;;;7.33;3.87;;;;;;;20.65;55.31;99939.17;1748168;82;21118;-75
2022/08/25 05:30:25;;;;;;;13.20;4.20;;;;;;;20.72;55.24;99943.13;1747893;82;21101;-74
2022/08/25 05:32:51;;;;;;;8.30;4.12;;;;;;;20.81;55.19;99939.43;1747642;82;21627;-75
2022/08/25 05:35:19;;;;;;;16.67;4.00;;;;;;;20.89;55.04;99941.08;1749576;80;21053;-75
2022/08/25 05:37:46;;;;;;;15.13;5.60;;;;;;;20.98;54.23;99944.45;1737687;82;21076;-75
2022/08/25 05:40:13;;;;;;;10.93;4.42;;;;;;;21.05;53.63;99936.84;1738093;82;21768;-74
2022/08/25 05:42:40;;;;;;;11.40;4.30;;;;;;;21.14;53.36;99937.02;1738961;80;21525;-75
2022/08/25 05:45:08;;;;;;;12.30;4.60;;;;;;;21.23;53.36;99940.00;1761432;79;21112;-74
2022/08/25 05:47:35;;;;;;;7.28;3.98;;;;;;;21.32;53.41;99942.02;1774624;80;21039;-74
2022/08/25 05:50:02;;;;;;;10.88;5.00;;;;;;;21.42;53.35;99939.54;1749073;81;21088;-74
2022/08/25 05:52:29;;;;;;;13.35;4.67;;;;;;;21.51;52.88;99937.05;1815567;79;22145;-75
2022/08/25 05:54:56;;;;;;;11.73;4.35;;;;;;;21.61;53.07;99936.39;1815122;78;21036;-75
2022/08/25 05:57:22;;;;;;;10.65;4.20;;;;;;;21.70;52.47;99931.67;1815184;79;21055;-75
2022/08/25 05:59:49;;;;;;;6.70;4.30;;;;;;;21.80;52.06;99934.52;1815080;79;21646;-75
2022/08/25 06:05:00;;;;;;;11.83;4.53;;;;;;;21.96;51.22;99939.59;1815248;79;21133;-75
2022/08/25 06:07:27;;;;;;;7.35;3.67;;;;;;;22.06;51.01;99929.89;1815162;78;20972;-74
2022/08/25 06:09:54;;;;;;;17.35;4.80;;;;;;;22.16;50.59;99931.39;1815661;79;20988;-75
2022/08/25 06:12:20;;;;;;;7.28;4.58;;;;;;;22.23;50.56;99930.78;1815166;78;21466;-74
2022/08/25 06:14:49;;;;;;;6.37;4.35;;;;;;;22.31;49.98;99926.22;1815708;78;21078;-74
2022/08/25 06:17:16;;;;;;;20.75;5.35;;;;;;;22.40;49.40;99925.48;1815276;78;21598;-74
2022/08/25 06:19:43;;;;;;;9.80;4.35;;;;;;;22.49;49.15;99923.91;1815215;78;21598;-75
2022/08/25 06:22:09;;;;;;;19.27;4.70;;;;;;;22.59;49.41;99920.91;1815061;78;21451;-75
2022/08/25 06:24:37;;;;;;;6.85;3.77;;;;;;;22.69;48.85;99924.20;1815019;79;21523;-75
2022/08/25 06:27:04;;;;;;;12.73;4.22;;;;;;;22.80;48.57;99930.91;1815350;79;21036;-75
2022/08/25 06:29:31;;;;;;;19.07;5.28;;;;;;;22.90;48.72;99933.23;1815146;79;21267;-74
2022/08/25 06:31:57;;;;;;;7.28;4.05;;;;;;;23.00;48.68;99931.52;1814800;79;21055;-74
2022/08/25 06:34:24;;;;;;;11.40;4.15;;;;;;;23.12;48.78;99938.27;1814822;78;21052;-74
2022/08/25 06:36:50;;;;;;;13.22;4.70;;;;;;;23.22;48.27;99945.05;1815555;78;21000;-75
2022/08/25 06:39:17;;;;;;;13.95;4.60;;;;;;;23.31;47.98;99938.95;1815010;79;21491;-75
2022/08/25 06:41:44;;;;;;;10.58;3.72;;;;;;;23.39;46.97;99935.16;1815074;79;21835;-75
2022/08/25 06:44:11;;;;;;;14.75;5.10;;;;;;;23.49;47.25;99940.64;1814942;79;21072;-75
2022/08/25 06:46:38;;;;;;;11.45;4.00;;;;;;;23.58;47.15;99939.03;1810833;78;21060;-74
2022/08/25 06:49:05;;;;;;;8.93;4.35;;;;;;;23.69;46.99;99942.53;1804052;79;21028;-74
2022/08/25 06:51:34;;;;;;;12.07;3.85;;;;;;;23.81;46.08;99945.19;1804075;79;21050;-75
2022/08/25 06:54:00;;;;;;;6.75;3.87;;;;;;;23.90;45.26;99940.41;1804453;78;21981;-74
2022/08/25 06:56:27;;;;;;;13.55;4.25;;;;;;;24.00;44.45;99942.68;1803447;79;21457;-74
2022/08/25 06:58:54;;;;;;;11.57;4.12;;;;;;;24.09;43.91;99941.05;1803667;79;21111;-75
2022/08/25 07:01:25;;;;;;;12.88;4.35;;;;;;;24.17;44.12;99937.72;1803812;79;21064;-75
2022/08/25 07:03:56;;;;;;;7.97;3.72;;;;;;;24.25;44.82;99933.39;1803997;79;21017;-75
2022/08/25 07:06:23;;;;;;;14.73;3.75;;;;;;;24.34;44.04;99927.71;1804263;79;21152;-74
2022/08/25 07:08:50;;;;;;;11.30;4.03;;;;;;;24.44;43.33;99938.06;1803949;79;21108;-75
2022/08/25 07:11:18;;;;;;;13.65;3.98;;;;;;;24.53;43.38;99930.16;1804080;79;21548;-75
2022/08/25 07:13:44;;;;;;;10.90;4.00;;;;;;;24.62;43.04;99929.41;1803972;79;21044;-75
2022/08/25 07:16:11;;;;;;;13.35;4.28;;;;;;;24.71;42.28;99924.55;1804128;78;20962;-75
2022/08/25 07:18:38;;;;;;;11.83;4.17;;;;;;;24.80;42.46;99930.49;1804217;79;21493;-75
2022/08/25 07:21:05;;;;;;;9.48;4.47;;;;;;;24.91;43.00;99925.50;1803853;79;21571;-75
2022/08/25 07:23:33;;;;;;;8.03;3.72;;;;;;;25.02;42.78;99925.41;1803955;79;21139;-75
2022/08/25 07:26:19;;;;;;;14.50;3.58;;;;;;;25.16;43.23;99928.21;1803889;79;21096;-75
2022/08/25 07:28:45;;;;;;;11.68;4.50;;;;;;;25.29;42.74;99921.77;1802804;79;21630;-75
2022/08/25 07:31:12;;;;;;;9.10;3.40;;;;;;;25.42;42.15;99921.03;1803713;79;21219;-76
2022/08/25 07:35:14;;;;;;;7.08;3.90;;;;;;;25.52;41.77;99918.33;1797734;79;20992;-75
2022/08/25 07:36:07;;;;;;;13.00;3.45;;;;;;;25.64;40.85;99910.96;1787726;80;21507;-75
2022/08/25 07:38:34;;;;;;;14.23;3.80;;;;;;;25.73;41.14;99912.83;1791836;80;21083;-75
2022/08/25 07:41:02;;;;;;;10.18;3.62;;;;;;;25.84;40.36;99912.70;1792250;80;21099;-75
2022/08/25 07:43:28;;;;;;;6.72;3.52;;;;;;;25.94;40.37;99908.16;1791958;79;21302;-74
2022/08/25 07:45:55;;;;;;;13.15;3.92;;;;;;;26.06;39.37;99908.05;1804309;79;21437;-74
2022/08/25 07:48:21;;;;;;;15.18;4.00;;;;;;;26.17;39.56;99903.81;1804117;79;21029;-75
2022/08/25 07:50:48;;;;;;;12.78;3.47;;;;;;;26.29;40.22;99905.38;1804132;79;21072;-75
2022/08/25 07:53:15;;;;;;;13.83;4.15;;;;;;;26.41;39.48;99896.63;1803983;79;20993;-75
2022/08/25 07:55:42;;;;;;;10.60;3.30;;;;;;;26.53;39.49;99894.59;1803704;79;21202;-75
2022/08/25 07:58:09;;;;;;;13.93;3.60;;;;;;;26.65;38.62;99894.80;1804043;79;21080;-75
2022/08/25 08:00:36;;;;;;;9.83;3.58;;;;;;;26.77;37.74;99895.97;1804073;78;21083;-74
2022/08/25 08:03:04;;;;;;;14.20;3.58;;;;;;;26.87;37.80;99892.72;1804353;78;20989;-75
2022/08/25 08:05:31;;;;;;;5.35;3.10;;;;;;;26.98;38.16;99895.23;1803824;79;20970;-75
2022/08/25 08:07:58;;;;;;;7.17;3.00;;;;;;;27.10;36.91;99889.61;1803723;79;21540;-75
2022/08/25 08:10:26;;;;;;;7.03;2.90;;;;;;;27.21;37.50;99889.41;1781582;79;21067;-75
2022/08/25 08:12:52;;;;;;;13.00;3.33;;;;;;;27.33;37.29;99885.52;1803836;79;21083;-75
2022/08/25 08:15:19;;;;;;;6.55;3.00;;;;;;;27.45;37.52;99874.49;1803980;79;21064;-75
2022/08/25 08:17:46;;;;;;;7.20;3.35;;;;;;;27.57;37.38;99880.01;1803872;78;20977;-75
2022/08/25 08:20:13;;;;;;;14.60;3.00;;;;;;;27.71;37.06;99874.08;1804255;79;21776;-75
2022/08/25 08:22:41;;;;;;;11.43;3.35;;;;;;;27.84;37.51;99866.06;1803842;79;21564;-75
2022/08/25 08:25:09;;;;;;;15.65;3.45;;;;;;;27.98;37.41;99870.95;1803709;79;21099;-75
2022/08/25 08:27:36;;;;;;;9.40;3.45;;;;;;;28.13;38.11;99865.83;1803748;79;21064;-74
2022/08/25 08:30:04;;;;;;;9.25;3.22;;;;;;;28.27;38.00;99861.69;1804105;78;21020;-75
2022/08/25 08:32:30;;;;;;;20.60;3.70;;;;;;;28.41;37.84;99862.47;1804100;79;21634;-75
2022/08/25 08:34:57;;;;;;;9.93;3.50;;;;;;;28.55;37.37;99861.02;1803738;79;21500;-75
2022/08/25 08:37:24;;;;;;;10.58;3.45;;;;;;;28.65;36.18;99859.58;1804182;79;23064;-75
2022/08/25 08:39:51;;;;;;;13.53;3.58;;;;;;;28.74;36.67;99860.45;1804034;79;21127;-75
2022/08/25 08:42:47;;;;;;;7.72;3.22;;;;;;;28.83;36.46;99856.76;1804176;79;21579;-74
2022/08/25 08:45:22;;;;;;;10.32;3.58;;;;;;;28.94;36.27;99852.41;1803595;79;22146;-75
2022/08/25 08:48:03;;;;;;;9.13;3.72;;;;;;;29.08;35.46;99852.28;1808314;79;21736;-75
2022/08/25 08:51:13;;;;;;;9.20;2.98;;;;;;;29.17;35.92;99845.05;1812242;78;21477;-75
2022/08/25 08:53:53;;;;;;;8.63;4.08;;;;;;;29.27;35.98;99841.19;1790410;80;21109;-75
2022/08/25 08:56:24;;;;;;;15.00;3.67;;;;;;;29.39;35.35;99839.53;1791041;80;21059;-75
2022/08/25 08:59:04;;;;;;;6.45;3.22;;;;;;;29.49;35.08;99839.34;1791456;80;21129;-75
2022/08/25 09:01:36;;;;;;;12.03;2.80;;;;;;;29.56;34.94;99834.45;1791349;80;21044;-75
2022/08/25 09:04:19;;;;;;;10.93;2.62;;;;;;;29.65;34.06;99833.42;1791263;80;22005;-75
2022/08/25 09:06:48;;;;;;;11.53;2.58;;;;;;;29.74;32.31;99834.78;1738419;80;21092;-76
2022/08/25 09:09:32;;;;;;;6.75;2.37;;;;;;;29.82;32.24;99835.69;1791443;80;21060;-75
2022/08/25 09:12:34;;;;;;;5.87;2.42;;;;;;;29.92;32.24;99834.13;1760562;80;21231;-75
2022/08/25 09:16:53;;;;;;;8.25;2.70;;;;;;;30.05;31.44;99834.14;1791254;80;20977;-75
2022/08/25 09:18:15;;;;;;;11.45;2.80;;;;;;;30.17;32.14;99838.17;1786290;80;21626;-75
2022/08/25 09:21:00;;;;;;;7.78;2.35;;;;;;;30.32;31.09;99831.53;1791230;80;21036;-75
2022/08/25 09:23:58;;;;;;;4.30;2.13;;;;;;;30.56;31.42;99826.56;1790961;80;21638;-75
2022/08/25 09:26:49;;;;;;;9.08;2.17;;;;;;;30.56;31.42;99826.56;1791178;80;21516;-75
2022/08/25 09:29:22;;;;;;;9.18;2.05;;;;;;;30.69;30.34;99828.20;1790986;80;20990;-74
2022/08/25 09:31:49;;;;;;;9.90;2.20;;;;;;;30.84;30.38;99823.41;1791357;80;21055;-75
2022/08/25 09:34:21;;;;;;;8.80;2.10;;;;;;;30.97;29.52;99822.34;1785559;80;21075;-75
2022/08/25 09:36:51;;;;;;;11.48;2.83;;;;;;;31.08;28.40;99826.00;1791574;79;20996;-75
2022/08/25 09:39:19;;;;;;;8.20;2.08;;;;;;;31.17;29.01;99825.95;1790705;80;21065;-75
2022/08/25 09:41:57;;;;;;;4.10;1.90;;;;;;;31.27;29.08;99821.13;1791146;79;21562;-75
2022/08/25 09:44:35;;;;;;;3.20;1.87;;;;;;;31.37;28.82;99819.53;1790171;80;20992;-74
2022/08/25 09:47:19;;;;;;;8.88;1.80;;;;;;;31.48;29.26;99819.95;1759308;80;21214;-75
2022/08/25 09:49:50;;;;;;;7.70;2.15;;;;;;;31.61;28.13;99808.51;1782633;80;21032;-76
2022/08/25 09:52:31;;;;;;;6.80;2.05;;;;;;;31.76;28.92;99800.39;1782753;80;21813;-75
2022/08/25 09:55:15;;;;;;;6.58;1.65;;;;;;;31.87;28.37;99800.45;1782839;80;21043;-75
2022/08/25 09:57:49;;;;;;;4.37;2.10;;;;;;;32.01;27.99;99801.50;1767097;80;21117;-75
2022/08/25 10:00:20;;;;;;;10.78;2.05;;;;;;;32.11;26.55;99789.02;1803616;79;21040;-75
2022/08/25 10:03:15;;;;;;;6.28;1.70;;;;;;;32.17;26.79;99785.03;1804340;79;21095;-75
2022/08/25 10:05:56;;;;;;;8.80;1.70;;;;;;;32.25;26.27;99787.36;1803868;79;21626;-75
2022/08/25 10:08:47;;;;;;;11.55;1.70;;;;;;;32.35;25.90;99782.47;1804102;79;21084;-74
2022/08/25 10:11:42;;;;;;;7.00;1.40;;;;;;;32.41;24.87;99776.25;1803680;79;21111;-75
2022/08/25 10:14:35;;;;;;;12.70;1.70;;;;;;;32.48;24.12;99773.13;1703466;84;21103;-75
2022/08/25 10:17:30;;;;;;;5.00;1.30;;;;;;;32.52;24.49;99774.41;1797070;79;21111;-75
2022/08/25 10:20:14;;;;;;;3.75;1.37;;;;;;;32.58;24.71;99765.98;1803734;79;21106;-75
2022/08/25 10:22:42;;;;;;;2.90;1.22;;;;;;;32.68;25.07;99769.81;1804113;79;21055;-75
2022/08/25 10:25:12;;;;;;;7.80;1.60;;;;;;;32.76;24.88;99768.34;1804257;79;20977;-75
2022/08/25 10:28:19;;;;;;;13.95;2.30;;;;;;;32.85;23.88;99754.95;1804001;79;21564;-75
2022/08/25 10:31:00;;;;;;;6.83;1.25;;;;;;;32.96;24.21;99753.05;1803109;79;21088;-74
2022/08/25 10:34:11;;;;;;;5.35;1.10;;;;;;;33.01;22.55;99753.02;1803531;79;21238;-75
2022/08/25 10:37:06;;;;;;;9.20;0.93;;;;;;;33.02;22.90;99755.55;1802665;79;21032;-74
2022/08/25 10:39:43;;;;;;;19.90;1.75;;;;;;;33.17;22.10;99761.47;1804282;79;21057;-75
2022/08/25 10:42:20;;;;;;;12.45;1.32;;;;;;;33.27;21.36;99766.95;1804217;79;21044;-75
2022/08/25 10:48:23;;;;;;;5.65;1.15;;;;;;;33.41;21.63;99750.17;1807132;79;21289;-74
2022/08/25 10:51:03;;;;;;;1.25;1.10;;;;;;;33.50;21.54;99744.05;1812587;79;21524;-74
2022/08/25 10:53:49;;;;;;;2.95;1.02;;;;;;;33.59;21.53;99740.16;1790479;80;21564;-74
2022/08/25 10:56:39;;;;;;;5.42;1.00;;;;;;;33.66;21.79;99740.21;1812717;78;26671;-75
2022/08/25 10:59:14;;;;;;;3.77;1.07;;;;;;;33.78;22.01;99737.81;1812600;78;21080;-75
2022/08/25 11:02:21;;;;;;;12.58;2.17;;;;;;;33.89;21.62;99734.50;1812751;79;21818;-75
2022/08/25 11:05:13;;;;;;;4.87;1.10;;;;;;;33.95;20.82;99736.45;1820678;78;21032;-75
2022/08/25 11:07:46;;;;;;;2.08;1.17;;;;;;;33.95;20.87;99729.62;1820389;78;21075;-74
2022/08/25 11:10:21;;;;;;;7.53;1.42;;;;;;;33.94;21.44;99736.11;1821230;78;21499;-75
2022/08/25 11:12:58;;;;;;;6.03;1.05;;;;;;;34.01;21.90;99728.83;1821038;78;21118;-74
2022/08/25 11:15:48;;;;;;;5.92;1.20;;;;;;;34.14;22.67;99727.20;1820607;78;21215;-75
2022/08/25 11:18:14;;;;;;;5.03;1.20;;;;;;;34.28;21.30;99726.78;1820798;78;21020;-75
2022/08/25 11:20:52;;;;;;;6.30;1.20;;;;;;;34.36;21.40;99723.34;1790590;80;20999;-75
2022/08/25 11:23:26;;;;;;;3.30;0.98;;;;;;;34.42;21.39;99718.44;1812259;79;22013;-76
2022/08/25 11:26:04;;;;;;;;;;;;;;;34.47;20.95;99723.83;1823301;78;21110;-76
2022/08/25 11:28:45;;;;;;;7.45;1.40;;;;;;;34.50;20.80;99718.80;1820735;78;21129;-76
2022/08/25 11:31:11;;;;;;;5.83;1.20;;;;;;;34.46;21.23;99716.67;1820729;78;21256;-75
2022/08/25 11:33:38;;;;;;;13.08;1.60;;;;;;;34.40;21.12;99719.17;1791640;78;21672;-76
2022/08/25 11:36:26;;;;;;;5.08;1.12;;;;;;;34.40;21.23;99716.45;1812120;78;21016;-76
2022/08/25 11:39:09;;;;;;;6.87;1.02;;;;;;;34.39;20.79;99712.02;1774334;78;21123;-76
2022/08/25 11:42:14;;;;;;;3.72;1.42;;;;;;;34.35;20.90;99713.48;1820742;78;21110;-76
2022/08/25 11:45:03;;;;;;;7.57;1.33;;;;;;;34.39;21.17;99711.19;1740286;82;21463;-76
2022/08/25 11:48:01;;;;;;;5.22;1.35;;;;;;;34.50;21.61;99704.28;1816540;78;21639;-76
2022/08/25 11:50:35;;;;;;;10.70;1.10;;;;;;;34.64;21.63;99709.28;1814946;78;20979;-76
2022/08/25 11:53:25;;;;;;;6.10;1.27;;;;;;;34.76;21.32;99701.66;1815438;78;21050;-76
2022/08/25 11:55:54;;;;;;;5.78;1.37;;;;;;;34.89;21.75;99704.13;1814907;78;21144;-76
2022/08/25 11:58:42;;;;;;;4.10;1.32;;;;;;;34.99;20.81;99697.72;1814919;79;21076;-76
2022/08/25 12:01:44;;;;;;;4.78;1.40;;;;;;;35.07;21.20;99696.16;1815290;78;21092;-76